James Bay — VRLU4 — position and weather

sailwx.info

Track history (hours):
 
Tides and Currents Weather Stations Pressure Air Temp Water Temp Dewpoint Dewpoint Depression Visibility Wind Speed Wind Dir Waves Ship Positions

James Bay

Last reported at 2017-Dec-03 21:00 UTC. Time now 2017-Dec-17 04:33 UTC.
Position N 53°18' W 133°36'.
Warning: this ship's position is 13 days out of date.

Length 179 m; draft 6.8 m.

Type: Ship. MMSI: 477427600.

Wind from 180 at 12 knots

Barometer 1022.8 mb
Air temperature 7.0 ° C
Dewpoint 4.9 ° C
Water temperature 12.0 ° C

Date/timePositionNaut miles runAvg speedWind from/ knotsBaromVisibWave heightAir tempDewpointWater temp
2017-Dec-03 21:00N 53°18' W 133°36'228 9.5 180 / 121022.8 7.0 4.912.0
2017-Dec-02 21:00N 49°30' W 133°18'165 6.9 010 / 251017.8 7.0 2.612.0
2017-Dec-01 21:00N 47°18' W 130°48'221 6.6 270 / 221012.8 11.0 9.212.0
2017-Nov-30 11:21N 46°13' W 125°39'3 6.3
2017-Nov-30 10:54N 46°13' W 125°35'3 6.5
2017-Nov-30 10:30N 46°13' W 125°32'5 6.6
2017-Nov-30 09:48N 46°13' W 125°25'2 7.5
2017-Nov-30 09:30N 46°13' W 125°22'4 7.5
2017-Nov-30 09:00N 46°13' W 125°16'4 7.7
2017-Nov-30 08:30N 46°13' W 125°11'6 8.1
2017-Nov-30 07:42N 46°13' W 125°02'2 8.7
2017-Nov-30 07:30N 46°13' W 124°59'6 8.5
2017-Nov-30 06:51N 46°13' W 124°51'3 8.8
2017-Nov-30 06:30N 46°13' W 124°47'4 8.7
2017-Nov-30 06:00N 46°13' W 124°40'4 8.6
2017-Nov-30 05:30N 46°13' W 124°34'4 8.2
2017-Nov-30 05:00N 46°14' W 124°28'4 8.1
2017-Nov-30 04:30N 46°14' W 124°22'4 8.7
2017-Nov-30 04:00N 46°14' W 124°16'510.2
2017-Nov-30 03:30N 46°13' W 124°09'5 9.5
2017-Nov-30 03:00N 46°15' W 124°03'911.4
2017-Nov-30 02:14N 46°12' W 123°51'2 9.5
2017-Nov-30 02:00N 46°12' W 123°48'812.5
2017-Nov-30 01:22N 46°16' W 123°38'713.4
2017-Nov-30 00:52N 46°16' W 123°28'513.6
2017-Nov-30 00:31N 46°11' W 123°26'612.4
2017-Nov-30 00:00N 46°09' W 123°18'713.9
2017-Nov-29 23:30N 46°11' W 123°09'714.4
2017-Nov-29 23:00N 46°08' W 122°60'612.4
2017-Nov-29 22:30N 46°03' W 122°53'511.1
2017-Nov-29 22:00N 45°58' W 122°50'713.1
2017-Nov-29 21:31N 45°52' W 122°47'612.8
2017-Nov-29 21:01N 45°46' W 122°46'612.6
2017-Nov-29 20:30N 45°39' W 122°46'4 7.7
2017-Nov-29 20:00N 45°36' W 122°47'4 8.2
2017-Nov-29 19:30N 45°33' W 122°42'1 2.3
2017-Nov-29 18:59N 45°32' W 122°41'0 0.0
2017-Nov-29 18:29N 45°32' W 122°41'0 0.0
2017-Nov-29 17:59N 45°32' W 122°41'0 0.0
2017-Nov-29 17:29N 45°32' W 122°41'0 0.0
2017-Nov-29 16:59N 45°32' W 122°41'0 0.0
2017-Nov-29 16:29N 45°32' W 122°41'0 0.0
2017-Nov-29 15:59N 45°32' W 122°41'0 0.0
2017-Nov-29 15:29N 45°32' W 122°41'0 0.0
2017-Nov-29 14:59N 45°32' W 122°41'0 0.0
2017-Nov-29 14:29N 45°32' W 122°41'0 0.0
2017-Nov-29 13:59N 45°32' W 122°41'0 0.0
2017-Nov-29 13:29N 45°32' W 122°41'0 0.0
2017-Nov-29 12:59N 45°32' W 122°41'0 0.0
2017-Nov-29 12:29N 45°32' W 122°41'0 0.0
2017-Nov-29 11:59N 45°32' W 122°41'0 0.0
2017-Nov-29 11:29N 45°32' W 122°41'0 0.0
2017-Nov-29 10:59N 45°32' W 122°41'0 0.0
2017-Nov-29 10:29N 45°32' W 122°41'0 0.0
2017-Nov-29 09:59N 45°32' W 122°41'0 0.0
2017-Nov-29 09:29N 45°32' W 122°41'0 0.0
2017-Nov-29 08:59N 45°32' W 122°41'0 0.0
2017-Nov-29 08:29N 45°32' W 122°41'0 0.0
2017-Nov-29 07:59N 45°32' W 122°41'0 0.0
2017-Nov-29 07:29N 45°32' W 122°41'0 0.0
2017-Nov-29 06:59N 45°32' W 122°41'0 0.0
2017-Nov-29 06:29N 45°32' W 122°41'0 0.0
2017-Nov-29 05:59N 45°32' W 122°41'0 0.0
2017-Nov-29 05:29N 45°32' W 122°41'0 0.0
2017-Nov-29 04:59N 45°32' W 122°41'0 0.0
2017-Nov-29 04:29N 45°32' W 122°41'0 0.0
2017-Nov-29 03:59N 45°32' W 122°41'0 0.0
2017-Nov-29 03:29N 45°32' W 122°41'0 0.0
2017-Nov-29 02:59N 45°32' W 122°41'0 0.0
2017-Nov-29 02:29N 45°32' W 122°41'0 0.0
2017-Nov-29 01:59N 45°32' W 122°41'0 0.0
2017-Nov-29 01:29N 45°32' W 122°41'0 0.0
2017-Nov-29 00:59N 45°32' W 122°41'0 0.0
2017-Nov-29 00:29N 45°32' W 122°41'0 0.0
2017-Nov-28 23:59N 45°32' W 122°41'0 0.0
2017-Nov-28 23:29N 45°32' W 122°41'0 0.0
2017-Nov-28 22:59N 45°32' W 122°41'0 0.0
2017-Nov-28 22:29N 45°32' W 122°41'0 0.0
2017-Nov-28 21:56N 45°32' W 122°41'0 0.0
2017-Nov-28 21:29N 45°32' W 122°41'0 0.0
2017-Nov-28 20:59N 45°32' W 122°41'0 0.0
2017-Nov-28 20:29N 45°32' W 122°41'0 0.0
2017-Nov-28 19:59N 45°32' W 122°41'0 0.0
2017-Nov-28 19:29N 45°32' W 122°41'0 0.0
2017-Nov-28 18:59N 45°32' W 122°41'0 0.0
2017-Nov-28 18:29N 45°32' W 122°41'0 0.0
2017-Nov-28 17:59N 45°32' W 122°41'0 0.0
2017-Nov-28 17:29N 45°32' W 122°41'0 0.0
2017-Nov-28 16:56N 45°32' W 122°41'0 0.0
2017-Nov-28 16:29N 45°32' W 122°41'0 0.0
2017-Nov-28 15:59N 45°32' W 122°41'0 0.0
2017-Nov-28 14:59N 45°32' W 122°41'0 0.0
2017-Nov-28 14:29N 45°32' W 122°41'0 0.0
2017-Nov-28 13:59N 45°32' W 122°41'0 0.0
2017-Nov-28 13:29N 45°32' W 122°41'0 0.0
2017-Nov-28 12:59N 45°32' W 122°41'0 0.0
2017-Nov-28 12:29N 45°32' W 122°41'0 0.0
2017-Nov-28 11:59N 45°32' W 122°41'0 0.0
2017-Nov-28 11:29N 45°32' W 122°41'0 0.0
2017-Nov-28 10:59N 45°32' W 122°41'0 0.0
2017-Nov-28 10:29N 45°32' W 122°41'0 0.0
2017-Nov-28 09:59N 45°32' W 122°41'0 0.0
2017-Nov-28 09:29N 45°32' W 122°41'0 0.0
2017-Nov-28 08:59N 45°32' W 122°41'0 0.0
2017-Nov-28 08:29N 45°32' W 122°41'0 0.0
2017-Nov-28 07:59N 45°32' W 122°41'0 0.0
2017-Nov-28 07:29N 45°32' W 122°41'0 0.0
2017-Nov-28 06:59N 45°32' W 122°41'0 0.0
2017-Nov-28 06:29N 45°32' W 122°41'0 0.0
2017-Nov-28 05:59N 45°32' W 122°41'0 0.0
2017-Nov-28 05:29N 45°32' W 122°41'0 0.0
2017-Nov-28 04:29N 45°32' W 122°41'0 0.0
2017-Nov-28 03:59N 45°32' W 122°41'0 0.0
2017-Nov-28 03:29N 45°32' W 122°41'0 0.0
2017-Nov-28 02:59N 45°32' W 122°41'0 0.0
2017-Nov-28 02:29N 45°32' W 122°41'0 0.0
2017-Nov-28 01:59N 45°32' W 122°41'0 0.0
2017-Nov-28 01:29N 45°32' W 122°41'0 0.0
2017-Nov-28 00:59N 45°32' W 122°41'0 0.0
2017-Nov-28 00:29N 45°32' W 122°41'0 0.0
2017-Nov-27 23:59N 45°32' W 122°41'0 0.0
2017-Nov-27 23:29N 45°32' W 122°41'0 0.0
2017-Nov-27 22:59N 45°32' W 122°41'0 0.0
2017-Nov-27 22:29N 45°32' W 122°41'0 0.0
2017-Nov-27 21:56N 45°32' W 122°41'0 0.0
2017-Nov-27 21:29N 45°32' W 122°41'0 0.0
2017-Nov-27 20:59N 45°32' W 122°41'0 0.0
2017-Nov-27 20:29N 45°32' W 122°41'0 0.0
2017-Nov-27 19:59N 45°32' W 122°41'0 0.0
2017-Nov-27 19:29N 45°32' W 122°41'0 0.0
2017-Nov-27 18:59N 45°32' W 122°41'0 0.0
2017-Nov-27 18:29N 45°32' W 122°41'0 0.0
2017-Nov-27 17:59N 45°32' W 122°41'0 0.0
2017-Nov-27 17:29N 45°32' W 122°41'0 0.0
2017-Nov-27 16:59N 45°32' W 122°41'0 0.0
2017-Nov-27 16:29N 45°32' W 122°41'0 0.0
2017-Nov-27 15:59N 45°32' W 122°41'0 0.0
2017-Nov-27 15:29N 45°32' W 122°41'0 0.0
2017-Nov-27 14:59N 45°32' W 122°41'0 0.0
2017-Nov-27 14:29N 45°32' W 122°41'0 0.0
2017-Nov-27 13:59N 45°32' W 122°41'0 0.0
2017-Nov-27 13:29N 45°32' W 122°41'0 0.0
2017-Nov-27 12:59N 45°32' W 122°41'0 0.0
2017-Nov-27 12:29N 45°32' W 122°41'0 0.0
2017-Nov-27 11:59N 45°32' W 122°41'0 0.0
2017-Nov-27 11:29N 45°32' W 122°41'0 0.0
2017-Nov-27 10:59N 45°32' W 122°41'0 0.0
2017-Nov-27 10:29N 45°32' W 122°41'0 0.0
2017-Nov-27 09:59N 45°32' W 122°41'0 0.0
2017-Nov-27 09:29N 45°32' W 122°41'0 0.0
2017-Nov-27 08:59N 45°32' W 122°41'0 0.0
2017-Nov-27 08:29N 45°32' W 122°41'0 0.0
2017-Nov-27 07:59N 45°32' W 122°41'0 0.0
2017-Nov-27 07:29N 45°32' W 122°41'0 0.0
2017-Nov-27 06:59N 45°32' W 122°41'0 0.0
2017-Nov-27 06:29N 45°32' W 122°41'0 0.0
2017-Nov-27 05:59N 45°32' W 122°41'0 0.0
2017-Nov-27 05:29N 45°32' W 122°41'0 0.0
2017-Nov-27 04:59N 45°32' W 122°41'0 0.0
2017-Nov-27 04:29N 45°32' W 122°41'0 0.0
2017-Nov-27 03:59N 45°32' W 122°41'0 0.0
2017-Nov-27 03:29N 45°32' W 122°41'0 0.0
2017-Nov-27 02:59N 45°32' W 122°41'0 0.0
2017-Nov-27 02:29N 45°32' W 122°41'0 0.0
2017-Nov-27 01:59N 45°32' W 122°41'0 0.0
2017-Nov-27 01:29N 45°32' W 122°41'0 0.0
2017-Nov-27 00:59N 45°32' W 122°41'0 0.0
2017-Nov-27 00:29N 45°32' W 122°41'0 0.0
2017-Nov-26 23:59N 45°32' W 122°41'0 0.0
2017-Nov-26 23:29N 45°32' W 122°41'0 0.0
2017-Nov-26 22:59N 45°32' W 122°41'0 0.0
2017-Nov-26 22:29N 45°32' W 122°41'0 0.0
2017-Nov-26 21:59N 45°32' W 122°41'0 0.0
2017-Nov-26 21:29N 45°32' W 122°41'0 0.0
2017-Nov-26 20:59N 45°32' W 122°41'0 0.0
2017-Nov-26 20:29N 45°32' W 122°41'0 0.0
2017-Nov-26 19:59N 45°32' W 122°41'0 0.0
2017-Nov-26 19:29N 45°32' W 122°41'0 0.0
2017-Nov-26 18:59N 45°32' W 122°41'0 0.0
2017-Nov-26 18:29N 45°32' W 122°41'0 0.0
2017-Nov-26 17:59N 45°32' W 122°41'0 0.0
2017-Nov-26 17:29N 45°32' W 122°41'0 0.0
2017-Nov-26 16:59N 45°32' W 122°41'0 0.0
2017-Nov-26 16:29N 45°32' W 122°41'0 0.0
2017-Nov-26 15:59N 45°32' W 122°41'0 0.0
2017-Nov-26 15:29N 45°32' W 122°41'0 0.0
2017-Nov-26 14:59N 45°32' W 122°41'0 0.0
2017-Nov-26 14:29N 45°32' W 122°41'0 0.0
2017-Nov-26 13:59N 45°32' W 122°41'0 0.0
2017-Nov-26 13:29N 45°32' W 122°41'0 0.0
2017-Nov-26 12:59N 45°32' W 122°41'0 0.0
2017-Nov-26 12:30N 45°32' W 122°41'0 0.0
2017-Nov-26 11:59N 45°32' W 122°41'0 0.0
2017-Nov-26 11:29N 45°32' W 122°41'0 0.0
2017-Nov-26 10:59N 45°32' W 122°41'0 0.0
2017-Nov-26 10:29N 45°32' W 122°41'0 0.0
2017-Nov-26 09:59N 45°32' W 122°41'0 0.0
2017-Nov-26 09:29N 45°32' W 122°41'0 0.0
2017-Nov-26 08:59N 45°32' W 122°41'0 0.0
2017-Nov-26 08:29N 45°32' W 122°41'0 0.0
2017-Nov-26 07:59N 45°32' W 122°41'0 0.0
2017-Nov-26 07:29N 45°32' W 122°41'0 0.0
2017-Nov-26 06:59N 45°32' W 122°41'0 0.0
2017-Nov-26 06:29N 45°32' W 122°41'0 0.0
2017-Nov-26 05:59N 45°32' W 122°41'0 0.0
2017-Nov-26 05:29N 45°32' W 122°41'0 0.0
2017-Nov-26 04:59N 45°32' W 122°41'0 0.0
2017-Nov-26 04:29N 45°32' W 122°41'0 0.0
2017-Nov-26 03:59N 45°32' W 122°41'0 0.0
2017-Nov-26 03:29N 45°32' W 122°41'0 0.0
2017-Nov-26 02:59N 45°32' W 122°41'0 0.0
2017-Nov-26 02:29N 45°32' W 122°41'0 0.0
2017-Nov-26 01:59N 45°32' W 122°41'0 0.0
2017-Nov-26 01:29N 45°32' W 122°41'0 0.0
2017-Nov-26 00:59N 45°32' W 122°41'0 0.0
2017-Nov-26 00:29N 45°32' W 122°41'0 0.0
2017-Nov-25 23:59N 45°32' W 122°41'0 0.0
2017-Nov-25 23:29N 45°32' W 122°41'0 0.0
2017-Nov-25 22:59N 45°32' W 122°41'0 0.0
2017-Nov-25 22:29N 45°32' W 122°41'0 0.0
2017-Nov-25 21:59N 45°32' W 122°41'0 0.0
2017-Nov-25 21:29N 45°32' W 122°41'0 0.0
2017-Nov-25 20:59N 45°32' W 122°41'0 0.0
2017-Nov-25 20:29N 45°32' W 122°41'0 0.0
2017-Nov-25 19:59N 45°32' W 122°41'0 0.0
2017-Nov-25 19:29N 45°32' W 122°41'0 0.0
2017-Nov-25 18:59N 45°32' W 122°41'0 0.0
2017-Nov-25 18:29N 45°32' W 122°41'0 0.0
2017-Nov-25 17:59N 45°32' W 122°41'0 0.0
2017-Nov-25 17:29N 45°32' W 122°41'0 0.0
2017-Nov-25 16:59N 45°32' W 122°41'0 0.0
2017-Nov-25 16:29N 45°32' W 122°41'0 0.0
2017-Nov-25 15:59N 45°32' W 122°41'0 0.0
2017-Nov-25 15:29N 45°32' W 122°41'0 0.0
2017-Nov-25 14:59N 45°32' W 122°41'0 0.0
2017-Nov-25 14:29N 45°32' W 122°41'0 0.0
2017-Nov-25 13:59N 45°32' W 122°41'0 0.0
2017-Nov-25 13:29N 45°32' W 122°41'0 0.0
2017-Nov-25 12:59N 45°32' W 122°41'0 0.0
2017-Nov-25 12:29N 45°32' W 122°41'0 0.0
2017-Nov-25 11:59N 45°32' W 122°41'0 0.0
2017-Nov-25 11:29N 45°32' W 122°41'0 0.0
2017-Nov-25 10:59N 45°32' W 122°41'0 0.0
2017-Nov-25 10:29N 45°32' W 122°41'0 0.0
2017-Nov-25 09:59N 45°32' W 122°41'0 0.0
2017-Nov-25 09:26N 45°32' W 122°41'0 0.0
2017-Nov-25 08:59N 45°32' W 122°41'0 0.0
2017-Nov-25 08:29N 45°32' W 122°41'0 0.0
2017-Nov-25 07:59N 45°32' W 122°41'0 0.0
2017-Nov-25 07:29N 45°32' W 122°41'0 0.0
2017-Nov-25 06:59N 45°32' W 122°41'0 0.0
2017-Nov-25 06:29N 45°32' W 122°41'0 0.0
2017-Nov-25 05:59N 45°32' W 122°41'0 0.0
2017-Nov-25 05:29N 45°32' W 122°41'0 0.0
2017-Nov-25 04:59N 45°32' W 122°41'0 0.0
2017-Nov-25 04:29N 45°32' W 122°41'0 0.0
2017-Nov-25 03:47N 45°32' W 122°41'0 0.0
2017-Nov-25 03:26N 45°32' W 122°41'0 0.0
2017-Nov-25 02:59N 45°32' W 122°41'0 0.0
2017-Nov-25 02:26N 45°32' W 122°41'0 0.0
2017-Nov-25 01:59N 45°32' W 122°41'0 0.0
2017-Nov-25 01:29N 45°32' W 122°41'0 0.0
2017-Nov-25 00:59N 45°32' W 122°41'0 0.0
2017-Nov-25 00:29N 45°32' W 122°41'0 0.0
2017-Nov-24 23:59N 45°32' W 122°41'0 0.0
2017-Nov-24 23:26N 45°32' W 122°41'0 0.0
2017-Nov-24 22:59N 45°32' W 122°41'0 0.0
2017-Nov-24 22:29N 45°32' W 122°41'0 0.0
2017-Nov-24 21:59N 45°32' W 122°41'0 0.0
2017-Nov-24 21:29N 45°32' W 122°41'0 0.0
2017-Nov-24 20:56N 45°32' W 122°41'0 0.0
2017-Nov-24 20:29N 45°32' W 122°41'0 0.0
2017-Nov-24 19:59N 45°32' W 122°41'0 0.0
2017-Nov-24 19:29N 45°32' W 122°41'0 0.0
2017-Nov-24 18:59N 45°32' W 122°41'0 0.0
2017-Nov-24 18:29N 45°32' W 122°41'0 0.0
2017-Nov-24 17:59N 45°32' W 122°41'0 0.0
2017-Nov-24 17:29N 45°32' W 122°41'0 0.0
2017-Nov-24 16:59N 45°32' W 122°41'0 0.0
2017-Nov-24 16:29N 45°32' W 122°41'0 0.0
2017-Nov-24 15:56N 45°32' W 122°41'0 0.0
2017-Nov-24 15:29N 45°32' W 122°41'0 0.0
2017-Nov-24 14:59N 45°32' W 122°41'0 0.0
2017-Nov-24 14:29N 45°32' W 122°41'0 0.0
2017-Nov-24 13:59N 45°32' W 122°41'0 0.0
2017-Nov-24 13:29N 45°32' W 122°41'0 0.0
2017-Nov-24 12:59N 45°32' W 122°41'0 0.0
2017-Nov-24 12:29N 45°32' W 122°41'0 0.0
2017-Nov-24 11:59N 45°32' W 122°41'0 0.0
2017-Nov-24 11:29N 45°32' W 122°41'0 0.0
2017-Nov-24 10:59N 45°32' W 122°41'0 0.0
2017-Nov-24 10:29N 45°32' W 122°41'0 0.0
2017-Nov-24 09:59N 45°32' W 122°41'0 0.0
2017-Nov-24 09:29N 45°32' W 122°41'0 0.0
2017-Nov-24 08:59N 45°32' W 122°41'0 0.0
2017-Nov-24 08:29N 45°32' W 122°41'0 0.0
2017-Nov-24 07:59N 45°32' W 122°41'0 0.0
2017-Nov-24 07:26N 45°32' W 122°41'0 0.0
2017-Nov-24 06:59N 45°32' W 122°41'0 0.0
2017-Nov-24 06:29N 45°32' W 122°41'0 0.0
2017-Nov-24 05:59N 45°32' W 122°41'0 0.0
2017-Nov-24 05:29N 45°32' W 122°41'0 0.0
2017-Nov-24 04:59N 45°32' W 122°41'0 0.0
2017-Nov-24 04:29N 45°32' W 122°41'0 0.0
2017-Nov-24 03:59N 45°32' W 122°41'0 0.0
2017-Nov-24 03:29N 45°32' W 122°41'0 0.0
2017-Nov-24 02:59N 45°32' W 122°41'0 0.0
2017-Nov-24 02:29N 45°32' W 122°41'0 0.0
2017-Nov-24 01:59N 45°32' W 122°41'0 0.0
2017-Nov-24 01:29N 45°32' W 122°41'0 0.0
2017-Nov-24 00:59N 45°32' W 122°41'0 0.0
2017-Nov-24 00:29N 45°32' W 122°41'0 0.0
2017-Nov-23 23:59N 45°32' W 122°41'0 0.0
2017-Nov-23 23:29N 45°32' W 122°41'0 0.0
2017-Nov-23 22:56N 45°32' W 122°41'0 0.0
2017-Nov-23 22:29N 45°32' W 122°41'0 0.0
2017-Nov-23 21:53N 45°32' W 122°41'0 0.0
2017-Nov-23 21:29N 45°32' W 122°41'  
Track history (hours):
 
Tides and Currents Weather Stations Pressure Air Temp Water Temp Dewpoint Dewpoint Depression Visibility Wind Speed Wind Dir Waves Ship Positions

James Bay

Last reported at 2017-Dec-03 21:00 UTC. Time now 2017-Dec-17 04:33 UTC.
Position N 53°18' W 133°36'.
Warning: this ship's position is 13 days out of date.

Length 179 m; draft 6.8 m.

Type: Ship. MMSI: 477427600.

Wind from 180 at 12 knots

Barometer 1022.8 mb
Air temperature 7.0 ° C
Dewpoint 4.9 ° C
Water temperature 12.0 ° C

Date/timePositionNaut miles runAvg speedWind from/ knotsBaromVisibWave heightAir tempDewpointWater temp
2017-Dec-03 21:00N 53°18' W 133°36'228 9.5 180 / 121022.8 7.0 4.912.0
2017-Dec-02 21:00N 49°30' W 133°18'165 6.9 010 / 251017.8 7.0 2.612.0
2017-Dec-01 21:00N 47°18' W 130°48'221 6.6 270 / 221012.8 11.0 9.212.0
2017-Nov-30 11:21N 46°13' W 125°39'3 6.3
2017-Nov-30 10:54N 46°13' W 125°35'3 6.5
2017-Nov-30 10:30N 46°13' W 125°32'5 6.6
2017-Nov-30 09:48N 46°13' W 125°25'2 7.5
2017-Nov-30 09:30N 46°13' W 125°22'4 7.5
2017-Nov-30 09:00N 46°13' W 125°16'4 7.7
2017-Nov-30 08:30N 46°13' W 125°11'6 8.1
2017-Nov-30 07:42N 46°13' W 125°02'2 8.7
2017-Nov-30 07:30N 46°13' W 124°59'6 8.5
2017-Nov-30 06:51N 46°13' W 124°51'3 8.8
2017-Nov-30 06:30N 46°13' W 124°47'4 8.7
2017-Nov-30 06:00N 46°13' W 124°40'4 8.6
2017-Nov-30 05:30N 46°13' W 124°34'4 8.2
2017-Nov-30 05:00N 46°14' W 124°28'4 8.1
2017-Nov-30 04:30N 46°14' W 124°22'4 8.7
2017-Nov-30 04:00N 46°14' W 124°16'510.2
2017-Nov-30 03:30N 46°13' W 124°09'5 9.5
2017-Nov-30 03:00N 46°15' W 124°03'911.4
2017-Nov-30 02:14N 46°12' W 123°51'2 9.5
2017-Nov-30 02:00N 46°12' W 123°48'812.5
2017-Nov-30 01:22N 46°16' W 123°38'713.4
2017-Nov-30 00:52N 46°16' W 123°28'513.6
2017-Nov-30 00:31N 46°11' W 123°26'612.4
2017-Nov-30 00:00N 46°09' W 123°18'713.9
2017-Nov-29 23:30N 46°11' W 123°09'714.4
2017-Nov-29 23:00N 46°08' W 122°60'612.4
2017-Nov-29 22:30N 46°03' W 122°53'511.1
2017-Nov-29 22:00N 45°58' W 122°50'713.1
2017-Nov-29 21:31N 45°52' W 122°47'612.8
2017-Nov-29 21:01N 45°46' W 122°46'612.6
2017-Nov-29 20:30N 45°39' W 122°46'4 7.7
2017-Nov-29 20:00N 45°36' W 122°47'4 8.2
2017-Nov-29 19:30N 45°33' W 122°42'1 2.3
2017-Nov-29 18:59N 45°32' W 122°41'0 0.0
2017-Nov-29 18:29N 45°32' W 122°41'0 0.0
2017-Nov-29 17:59N 45°32' W 122°41'0 0.0
2017-Nov-29 17:29N 45°32' W 122°41'0 0.0
2017-Nov-29 16:59N 45°32' W 122°41'0 0.0
2017-Nov-29 16:29N 45°32' W 122°41'0 0.0
2017-Nov-29 15:59N 45°32' W 122°41'0 0.0
2017-Nov-29 15:29N 45°32' W 122°41'0 0.0
2017-Nov-29 14:59N 45°32' W 122°41'0 0.0
2017-Nov-29 14:29N 45°32' W 122°41'0 0.0
2017-Nov-29 13:59N 45°32' W 122°41'0 0.0
2017-Nov-29 13:29N 45°32' W 122°41'0 0.0
2017-Nov-29 12:59N 45°32' W 122°41'0 0.0
2017-Nov-29 12:29N 45°32' W 122°41'0 0.0
2017-Nov-29 11:59N 45°32' W 122°41'0 0.0
2017-Nov-29 11:29N 45°32' W 122°41'0 0.0
2017-Nov-29 10:59N 45°32' W 122°41'0 0.0
2017-Nov-29 10:29N 45°32' W 122°41'0 0.0
2017-Nov-29 09:59N 45°32' W 122°41'0 0.0
2017-Nov-29 09:29N 45°32' W 122°41'0 0.0
2017-Nov-29 08:59N 45°32' W 122°41'0 0.0
2017-Nov-29 08:29N 45°32' W 122°41'0 0.0
2017-Nov-29 07:59N 45°32' W 122°41'0 0.0
2017-Nov-29 07:29N 45°32' W 122°41'0 0.0
2017-Nov-29 06:59N 45°32' W 122°41'0 0.0
2017-Nov-29 06:29N 45°32' W 122°41'0 0.0
2017-Nov-29 05:59N 45°32' W 122°41'0 0.0
2017-Nov-29 05:29N 45°32' W 122°41'0 0.0
2017-Nov-29 04:59N 45°32' W 122°41'0 0.0
2017-Nov-29 04:29N 45°32' W 122°41'0 0.0
2017-Nov-29 03:59N 45°32' W 122°41'0 0.0
2017-Nov-29 03:29N 45°32' W 122°41'0 0.0
2017-Nov-29 02:59N 45°32' W 122°41'0 0.0
2017-Nov-29 02:29N 45°32' W 122°41'0 0.0
2017-Nov-29 01:59N 45°32' W 122°41'0 0.0
2017-Nov-29 01:29N 45°32' W 122°41'0 0.0
2017-Nov-29 00:59N 45°32' W 122°41'0 0.0
2017-Nov-29 00:29N 45°32' W 122°41'0 0.0
2017-Nov-28 23:59N 45°32' W 122°41'0 0.0
2017-Nov-28 23:29N 45°32' W 122°41'0 0.0
2017-Nov-28 22:59N 45°32' W 122°41'0 0.0
2017-Nov-28 22:29N 45°32' W 122°41'0 0.0
2017-Nov-28 21:56N 45°32' W 122°41'0 0.0
2017-Nov-28 21:29N 45°32' W 122°41'0 0.0
2017-Nov-28 20:59N 45°32' W 122°41'0 0.0
2017-Nov-28 20:29N 45°32' W 122°41'0 0.0
2017-Nov-28 19:59N 45°32' W 122°41'0 0.0
2017-Nov-28 19:29N 45°32' W 122°41'0 0.0
2017-Nov-28 18:59N 45°32' W 122°41'0 0.0
2017-Nov-28 18:29N 45°32' W 122°41'0 0.0
2017-Nov-28 17:59N 45°32' W 122°41'0 0.0
2017-Nov-28 17:29N 45°32' W 122°41'0 0.0
2017-Nov-28 16:56N 45°32' W 122°41'0 0.0
2017-Nov-28 16:29N 45°32' W 122°41'0 0.0
2017-Nov-28 15:59N 45°32' W 122°41'0 0.0
2017-Nov-28 14:59N 45°32' W 122°41'0 0.0
2017-Nov-28 14:29N 45°32' W 122°41'0 0.0
2017-Nov-28 13:59N 45°32' W 122°41'0 0.0
2017-Nov-28 13:29N 45°32' W 122°41'0 0.0
2017-Nov-28 12:59N 45°32' W 122°41'0 0.0
2017-Nov-28 12:29N 45°32' W 122°41'0 0.0
2017-Nov-28 11:59N 45°32' W 122°41'0 0.0
2017-Nov-28 11:29N 45°32' W 122°41'0 0.0
2017-Nov-28 10:59N 45°32' W 122°41'0 0.0
2017-Nov-28 10:29N 45°32' W 122°41'0 0.0
2017-Nov-28 09:59N 45°32' W 122°41'0 0.0
2017-Nov-28 09:29N 45°32' W 122°41'0 0.0
2017-Nov-28 08:59N 45°32' W 122°41'0 0.0
2017-Nov-28 08:29N 45°32' W 122°41'0 0.0
2017-Nov-28 07:59N 45°32' W 122°41'0 0.0
2017-Nov-28 07:29N 45°32' W 122°41'0 0.0
2017-Nov-28 06:59N 45°32' W 122°41'0 0.0
2017-Nov-28 06:29N 45°32' W 122°41'0 0.0
2017-Nov-28 05:59N 45°32' W 122°41'0 0.0
2017-Nov-28 05:29N 45°32' W 122°41'0 0.0
2017-Nov-28 04:29N 45°32' W 122°41'0 0.0
2017-Nov-28 03:59N 45°32' W 122°41'0 0.0
2017-Nov-28 03:29N 45°32' W 122°41'0 0.0
2017-Nov-28 02:59N 45°32' W 122°41'0 0.0
2017-Nov-28 02:29N 45°32' W 122°41'0 0.0
2017-Nov-28 01:59N 45°32' W 122°41'0 0.0
2017-Nov-28 01:29N 45°32' W 122°41'0 0.0
2017-Nov-28 00:59N 45°32' W 122°41'0 0.0
2017-Nov-28 00:29N 45°32' W 122°41'0 0.0
2017-Nov-27 23:59N 45°32' W 122°41'0 0.0
2017-Nov-27 23:29N 45°32' W 122°41'0 0.0
2017-Nov-27 22:59N 45°32' W 122°41'0 0.0
2017-Nov-27 22:29N 45°32' W 122°41'0 0.0
2017-Nov-27 21:56N 45°32' W 122°41'0 0.0
2017-Nov-27 21:29N 45°32' W 122°41'0 0.0
2017-Nov-27 20:59N 45°32' W 122°41'0 0.0
2017-Nov-27 20:29N 45°32' W 122°41'0 0.0
2017-Nov-27 19:59N 45°32' W 122°41'0 0.0
2017-Nov-27 19:29N 45°32' W 122°41'0 0.0
2017-Nov-27 18:59N 45°32' W 122°41'0 0.0
2017-Nov-27 18:29N 45°32' W 122°41'0 0.0
2017-Nov-27 17:59N 45°32' W 122°41'0 0.0
2017-Nov-27 17:29N 45°32' W 122°41'0 0.0
2017-Nov-27 16:59N 45°32' W 122°41'0 0.0
2017-Nov-27 16:29N 45°32' W 122°41'0 0.0
2017-Nov-27 15:59N 45°32' W 122°41'0 0.0
2017-Nov-27 15:29N 45°32' W 122°41'0 0.0
2017-Nov-27 14:59N 45°32' W 122°41'0 0.0
2017-Nov-27 14:29N 45°32' W 122°41'0 0.0
2017-Nov-27 13:59N 45°32' W 122°41'0 0.0
2017-Nov-27 13:29N 45°32' W 122°41'0 0.0
2017-Nov-27 12:59N 45°32' W 122°41'0 0.0
2017-Nov-27 12:29N 45°32' W 122°41'0 0.0
2017-Nov-27 11:59N 45°32' W 122°41'0 0.0
2017-Nov-27 11:29N 45°32' W 122°41'0 0.0
2017-Nov-27 10:59N 45°32' W 122°41'0 0.0
2017-Nov-27 10:29N 45°32' W 122°41'0 0.0
2017-Nov-27 09:59N 45°32' W 122°41'0 0.0
2017-Nov-27 09:29N 45°32' W 122°41'0 0.0
2017-Nov-27 08:59N 45°32' W 122°41'0 0.0
2017-Nov-27 08:29N 45°32' W 122°41'0 0.0
2017-Nov-27 07:59N 45°32' W 122°41'0 0.0
2017-Nov-27 07:29N 45°32' W 122°41'0 0.0
2017-Nov-27 06:59N 45°32' W 122°41'0 0.0
2017-Nov-27 06:29N 45°32' W 122°41'0 0.0
2017-Nov-27 05:59N 45°32' W 122°41'0 0.0
2017-Nov-27 05:29N 45°32' W 122°41'0 0.0
2017-Nov-27 04:59N 45°32' W 122°41'0 0.0
2017-Nov-27 04:29N 45°32' W 122°41'0 0.0
2017-Nov-27 03:59N 45°32' W 122°41'0 0.0
2017-Nov-27 03:29N 45°32' W 122°41'0 0.0
2017-Nov-27 02:59N 45°32' W 122°41'0 0.0
2017-Nov-27 02:29N 45°32' W 122°41'0 0.0
2017-Nov-27 01:59N 45°32' W 122°41'0 0.0
2017-Nov-27 01:29N 45°32' W 122°41'0 0.0
2017-Nov-27 00:59N 45°32' W 122°41'0 0.0
2017-Nov-27 00:29N 45°32' W 122°41'0 0.0
2017-Nov-26 23:59N 45°32' W 122°41'0 0.0
2017-Nov-26 23:29N 45°32' W 122°41'0 0.0
2017-Nov-26 22:59N 45°32' W 122°41'0 0.0
2017-Nov-26 22:29N 45°32' W 122°41'0 0.0
2017-Nov-26 21:59N 45°32' W 122°41'0 0.0
2017-Nov-26 21:29N 45°32' W 122°41'0 0.0
2017-Nov-26 20:59N 45°32' W 122°41'0 0.0
2017-Nov-26 20:29N 45°32' W 122°41'0 0.0
2017-Nov-26 19:59N 45°32' W 122°41'0 0.0
2017-Nov-26 19:29N 45°32' W 122°41'0 0.0
2017-Nov-26 18:59N 45°32' W 122°41'0 0.0
2017-Nov-26 18:29N 45°32' W 122°41'0 0.0
2017-Nov-26 17:59N 45°32' W 122°41'0 0.0
2017-Nov-26 17:29N 45°32' W 122°41'0 0.0
2017-Nov-26 16:59N 45°32' W 122°41'0 0.0
2017-Nov-26 16:29N 45°32' W 122°41'0 0.0
2017-Nov-26 15:59N 45°32' W 122°41'0 0.0
2017-Nov-26 15:29N 45°32' W 122°41'0 0.0
2017-Nov-26 14:59N 45°32' W 122°41'0 0.0
2017-Nov-26 14:29N 45°32' W 122°41'0 0.0
2017-Nov-26 13:59N 45°32' W 122°41'0 0.0
2017-Nov-26 13:29N 45°32' W 122°41'0 0.0
2017-Nov-26 12:59N 45°32' W 122°41'0 0.0
2017-Nov-26 12:30N 45°32' W 122°41'0 0.0
2017-Nov-26 11:59N 45°32' W 122°41'0 0.0
2017-Nov-26 11:29N 45°32' W 122°41'0 0.0
2017-Nov-26 10:59N 45°32' W 122°41'0 0.0
2017-Nov-26 10:29N 45°32' W 122°41'0 0.0
2017-Nov-26 09:59N 45°32' W 122°41'0 0.0
2017-Nov-26 09:29N 45°32' W 122°41'0 0.0
2017-Nov-26 08:59N 45°32' W 122°41'0 0.0
2017-Nov-26 08:29N 45°32' W 122°41'0 0.0
2017-Nov-26 07:59N 45°32' W 122°41'0 0.0
2017-Nov-26 07:29N 45°32' W 122°41'0 0.0
2017-Nov-26 06:59N 45°32' W 122°41'0 0.0
2017-Nov-26 06:29N 45°32' W 122°41'0 0.0
2017-Nov-26 05:59N 45°32' W 122°41'0 0.0
2017-Nov-26 05:29N 45°32' W 122°41'0 0.0
2017-Nov-26 04:59N 45°32' W 122°41'0 0.0
2017-Nov-26 04:29N 45°32' W 122°41'0 0.0
2017-Nov-26 03:59N 45°32' W 122°41'0 0.0
2017-Nov-26 03:29N 45°32' W 122°41'0 0.0
2017-Nov-26 02:59N 45°32' W 122°41'0 0.0
2017-Nov-26 02:29N 45°32' W 122°41'0 0.0
2017-Nov-26 01:59N 45°32' W 122°41'0 0.0
2017-Nov-26 01:29N 45°32' W 122°41'0 0.0
2017-Nov-26 00:59N 45°32' W 122°41'0 0.0
2017-Nov-26 00:29N 45°32' W 122°41'0 0.0
2017-Nov-25 23:59N 45°32' W 122°41'0 0.0
2017-Nov-25 23:29N 45°32' W 122°41'0 0.0
2017-Nov-25 22:59N 45°32' W 122°41'0 0.0
2017-Nov-25 22:29N 45°32' W 122°41'0 0.0
2017-Nov-25 21:59N 45°32' W 122°41'0 0.0
2017-Nov-25 21:29N 45°32' W 122°41'0 0.0
2017-Nov-25 20:59N 45°32' W 122°41'0 0.0
2017-Nov-25 20:29N 45°32' W 122°41'0 0.0
2017-Nov-25 19:59N 45°32' W 122°41'0 0.0
2017-Nov-25 19:29N 45°32' W 122°41'0 0.0
2017-Nov-25 18:59N 45°32' W 122°41'0 0.0
2017-Nov-25 18:29N 45°32' W 122°41'0 0.0
2017-Nov-25 17:59N 45°32' W 122°41'0 0.0
2017-Nov-25 17:29N 45°32' W 122°41'0 0.0
2017-Nov-25 16:59N 45°32' W 122°41'0 0.0
2017-Nov-25 16:29N 45°32' W 122°41'0 0.0
2017-Nov-25 15:59N 45°32' W 122°41'0 0.0
2017-Nov-25 15:29N 45°32' W 122°41'0 0.0
2017-Nov-25 14:59N 45°32' W 122°41'0 0.0
2017-Nov-25 14:29N 45°32' W 122°41'0 0.0
2017-Nov-25 13:59N 45°32' W 122°41'0 0.0
2017-Nov-25 13:29N 45°32' W 122°41'0 0.0
2017-Nov-25 12:59N 45°32' W 122°41'0 0.0
2017-Nov-25 12:29N 45°32' W 122°41'0 0.0
2017-Nov-25 11:59N 45°32' W 122°41'0 0.0
2017-Nov-25 11:29N 45°32' W 122°41'0 0.0
2017-Nov-25 10:59N 45°32' W 122°41'0 0.0
2017-Nov-25 10:29N 45°32' W 122°41'0 0.0
2017-Nov-25 09:59N 45°32' W 122°41'0 0.0
2017-Nov-25 09:26N 45°32' W 122°41'0 0.0
2017-Nov-25 08:59N 45°32' W 122°41'0 0.0
2017-Nov-25 08:29N 45°32' W 122°41'0 0.0
2017-Nov-25 07:59N 45°32' W 122°41'0 0.0
2017-Nov-25 07:29N 45°32' W 122°41'0 0.0
2017-Nov-25 06:59N 45°32' W 122°41'0 0.0
2017-Nov-25 06:29N 45°32' W 122°41'0 0.0
2017-Nov-25 05:59N 45°32' W 122°41'0 0.0
2017-Nov-25 05:29N 45°32' W 122°41'0 0.0
2017-Nov-25 04:59N 45°32' W 122°41'0 0.0
2017-Nov-25 04:29N 45°32' W 122°41'0 0.0
2017-Nov-25 03:47N 45°32' W 122°41'0 0.0
2017-Nov-25 03:26N 45°32' W 122°41'0 0.0
2017-Nov-25 02:59N 45°32' W 122°41'0 0.0
2017-Nov-25 02:26N 45°32' W 122°41'0 0.0
2017-Nov-25 01:59N 45°32' W 122°41'0 0.0
2017-Nov-25 01:29N 45°32' W 122°41'0 0.0
2017-Nov-25 00:59N 45°32' W 122°41'0 0.0
2017-Nov-25 00:29N 45°32' W 122°41'0 0.0
2017-Nov-24 23:59N 45°32' W 122°41'0 0.0
2017-Nov-24 23:26N 45°32' W 122°41'0 0.0
2017-Nov-24 22:59N 45°32' W 122°41'0 0.0
2017-Nov-24 22:29N 45°32' W 122°41'0 0.0
2017-Nov-24 21:59N 45°32' W 122°41'0 0.0
2017-Nov-24 21:29N 45°32' W 122°41'0 0.0
2017-Nov-24 20:56N 45°32' W 122°41'0 0.0
2017-Nov-24 20:29N 45°32' W 122°41'0 0.0
2017-Nov-24 19:59N 45°32' W 122°41'0 0.0
2017-Nov-24 19:29N 45°32' W 122°41'0 0.0
2017-Nov-24 18:59N 45°32' W 122°41'0 0.0
2017-Nov-24 18:29N 45°32' W 122°41'0 0.0
2017-Nov-24 17:59N 45°32' W 122°41'0 0.0
2017-Nov-24 17:29N 45°32' W 122°41'0 0.0
2017-Nov-24 16:59N 45°32' W 122°41'0 0.0
2017-Nov-24 16:29N 45°32' W 122°41'0 0.0
2017-Nov-24 15:56N 45°32' W 122°41'0 0.0
2017-Nov-24 15:29N 45°32' W 122°41'0 0.0
2017-Nov-24 14:59N 45°32' W 122°41'0 0.0
2017-Nov-24 14:29N 45°32' W 122°41'0 0.0
2017-Nov-24 13:59N 45°32' W 122°41'0 0.0
2017-Nov-24 13:29N 45°32' W 122°41'0 0.0
2017-Nov-24 12:59N 45°32' W 122°41'0 0.0
2017-Nov-24 12:29N 45°32' W 122°41'0 0.0
2017-Nov-24 11:59N 45°32' W 122°41'0 0.0
2017-Nov-24 11:29N 45°32' W 122°41'0 0.0
2017-Nov-24 10:59N 45°32' W 122°41'0 0.0
2017-Nov-24 10:29N 45°32' W 122°41'0 0.0
2017-Nov-24 09:59N 45°32' W 122°41'0 0.0
2017-Nov-24 09:29N 45°32' W 122°41'0 0.0
2017-Nov-24 08:59N 45°32' W 122°41'0 0.0
2017-Nov-24 08:29N 45°32' W 122°41'0 0.0
2017-Nov-24 07:59N 45°32' W 122°41'0 0.0
2017-Nov-24 07:26N 45°32' W 122°41'0 0.0
2017-Nov-24 06:59N 45°32' W 122°41'0 0.0
2017-Nov-24 06:29N 45°32' W 122°41'0 0.0
2017-Nov-24 05:59N 45°32' W 122°41'0 0.0
2017-Nov-24 05:29N 45°32' W 122°41'0 0.0
2017-Nov-24 04:59N 45°32' W 122°41'0 0.0
2017-Nov-24 04:29N 45°32' W 122°41'0 0.0
2017-Nov-24 03:59N 45°32' W 122°41'0 0.0
2017-Nov-24 03:29N 45°32' W 122°41'0 0.0
2017-Nov-24 02:59N 45°32' W 122°41'0 0.0
2017-Nov-24 02:29N 45°32' W 122°41'0 0.0
2017-Nov-24 01:59N 45°32' W 122°41'0 0.0
2017-Nov-24 01:29N 45°32' W 122°41'0 0.0
2017-Nov-24 00:59N 45°32' W 122°41'0 0.0
2017-Nov-24 00:29N 45°32' W 122°41'0 0.0
2017-Nov-23 23:59N 45°32' W 122°41'0 0.0
2017-Nov-23 23:29N 45°32' W 122°41'0 0.0
2017-Nov-23 22:56N 45°32' W 122°41'0 0.0
2017-Nov-23 22:29N 45°32' W 122°41'0 0.0
2017-Nov-23 21:53N 45°32' W 122°41'0 0.0
2017-Nov-23 21:29N 45°32' W 122°41'  

Dump ship's entire track history